• Join FlightAware (Why Join?)
  • Login
  • US Flag 
04:38AM EDT


 

Airport Tracker/Info


-or-


 

Live Flight TrackerFlight Track Log ✈ EJA102 ✈ 10-Aug-2013 ✈ KALB - KPVD

Flight Track Log - Related Links

Times and Time Zones

All times are in EDT time to prevent confusion due to time zone crossing. See the EJA102 flight status page for this flight to view local times or setup timezone preferences in your user account.

Time Position Orientation Groundspeed Altitude Reporting Facility
EDT Latitude Longitude Course Direction KTS MPH feet Rate Location/Type
03:19PM 42.6672 -73.8067 172° South 273 314 7,100  Level Boston Center
03:21PM 42.6139 -73.7294 133° Southeast 283 326 10,500 2,160 Climbing Boston Center
03:22PM 42.5361 -73.6094 131° Southeast 334 384 12,000 1,260 Climbing Boston Center
03:23PM 42.4744 -73.5097 130° Southeast 379 436 13,100 540 Climbing Boston Center
03:24PM 42.3903 -73.3819 132° Southeast 398 458 13,100 -60 Level Boston Center
03:25PM 42.3222 -73.2714 130° Southeast 419 482 13,000 -60 Descending Boston Center
03:26PM 42.2378 -73.1411 131° Southeast 419 482 13,000  Level Boston Center
03:27PM 42.1694 -73.0367 131° Southeast 412 474 13,000 -60 Level Boston Center
03:28PM 42.0869 -72.9100 131° Southeast 412 474 12,900 -60 Descending Boston Center
03:29PM 42.0164 -72.8089 133° Southeast 412 474 12,900  Level Boston Center
03:30PM 41.9417 -72.6942 131° Southeast 412 474 12,900  Level Boston Center
03:31PM 41.8669 -72.5572 126° Southeast 412 474 12,900  Level Boston Center
03:32PM 41.8044 -72.4456 127° Southeast 419 482 12,900 -540 Level Boston Center
03:33PM 41.7064 -72.2733 127° Southeast 400 460 11,700 -1,080 Descending Boston Center
03:33PM 41.6750 -72.2150 126° Southeast 396 456 11,000 -480 Descending Boston Center
03:34PM 41.6100 -72.0958 126° Southeast 385 443 11,000 -420 Level Boston Center
03:36PM 41.5450 -71.9631 123° Southeast 392 451 10,200 -780 Descending Boston Center
03:37PM 41.4983 -71.8275 115° Southeast 384 442 9,400 -1,080 Descending Boston Center
03:38PM 41.4581 -71.7117 115° Southeast 311 358 8,100 -1,380 Descending Boston Center
03:39PM 41.4908 -71.6142 66° East 273 314 6,700 -1,440 Descending Boston Center
03:40PM 41.5339 -71.5417 52° Northeast 234 269 5,200 -1,380 Descending Boston Center
03:40PM 41.5339 -71.5417 52° Northeast 261 300 5,300 -240 Climbing Boston Center
03:41PM 41.5856 -71.4686 47° Northeast 250 288 5,000 -180 Descending Boston Center
03:42PM 41.6369 -71.4042 43° Northeast 248 285 5,000  Level Boston Center
03:43PM 41.6867 -71.3558 36° Northeast 235 270 5,000 -600 Level Boston Center
03:44PM 41.7300 -71.3108 38° Northeast 202 232 3,800 -1,260 Descending Boston Center
03:45PM 41.7697 -71.3294 341° North 191 220 2,400 -1,200 Descending Boston Center
03:46PM 41.7683 -71.3908 268° West 141 162 1,400 -1,080 Descending Boston Center
03:47PM 41.7414 -71.4133 212° Southwest 116 133 400 6,000 Descending Boston Center
03:48PM 41.7206 -71.4306 212° Southwest 115 132 13,000 6,240 Climbing Boston Center
03:49PM 41.7206 -71.4333 270° West 62 71 13,000  Level Boston Center
03:50PM 41.7125 -71.4389 207° Southwest 42 48 13,000  Level Boston Center
03:51PM 41.7000 -71.4475 207° Southwest 42 48 13,000  Level Boston Center
03:52PM 41.6894 -71.4533 202° Southwest 42 48 13,000  Level Boston Center
03:54PM 41.7167 -71.4167 37° Northeast  Level FlightAware Approximate
04:01PM 41.7240 -71.4282 37° Northeast  Level Estimated
04:02PM 41.7240 -71.4282 37° Northeast  Level Estimated